Time;durP1;ratioP1;P1;durP2;ratioP2;P2;SDS_P1;SDS_P2;PMS_P1;PMS_P2;Temp;Humidity;BMP_temperature;BMP_pressure;BME280_temperature;BME280_humidity;BME280_pressure;Samples;Min_cycle;Max_cycle;Signal;HPM_P1;HPM_P2
2021/07/19 00:02:02;;;;;;;46.38;25.20;;;;;;;21.44;83.02;98537.00;5050341;28;20061;-67
2021/07/19 00:04:31;;;;;;;43.63;26.52;;;;;;;21.38;83.06;98535.31;5050070;28;20059;-67
2021/07/19 00:06:56;;;;;;;44.78;26.90;;;;;;;21.38;83.43;98538.84;5051177;28;20408;-67
2021/07/19 00:09:22;;;;;;;47.40;26.58;;;;;;;21.35;83.38;98539.34;5049997;28;20041;-66
2021/07/19 00:11:49;;;;;;;41.85;25.70;;;;;;;21.33;83.50;98538.78;5051192;28;20459;-67
2021/07/19 00:14:15;;;;;;;44.72;25.58;;;;;;;21.30;83.48;98533.06;5049980;28;20477;-67
2021/07/19 00:16:40;;;;;;;47.38;27.13;;;;;;;21.16;83.34;98521.03;5051042;28;20540;-67
2021/07/19 00:19:06;;;;;;;39.47;25.90;;;;;;;21.20;83.87;98538.38;5051190;28;20036;-69
2021/07/19 00:21:32;;;;;;;48.03;25.75;;;;;;;21.16;83.95;98543.44;5051123;28;20133;-68
2021/07/19 00:23:58;;;;;;;38.72;23.60;;;;;;;21.17;83.93;98549.69;5050912;28;20052;-67
2021/07/19 00:26:23;;;;;;;43.33;25.05;;;;;;;21.18;83.78;98552.13;5050985;28;20128;-67
2021/07/19 00:28:50;;;;;;;40.53;23.83;;;;;;;21.17;83.62;98549.69;5050887;28;20061;-68
2021/07/19 00:31:16;;;;;;;39.72;23.88;;;;;;;21.20;83.98;98549.97;5033251;28;20123;-67
2021/07/19 00:33:43;;;;;;;32.53;21.95;;;;;;;21.17;83.78;98542.38;5051027;28;20485;-68
2021/07/19 00:36:10;;;;;;;40.72;24.27;;;;;;;21.18;84.11;98543.19;5051151;28;20037;-66
2021/07/19 00:38:47;;;;;;;35.05;23.42;;;;;;;21.16;83.99;98537.22;5049660;28;20425;-68
2021/07/19 00:41:13;;;;;;;37.75;23.00;;;;;;;21.05;83.79;98509.28;5050762;28;20548;-68
2021/07/19 00:43:39;;;;;;;31.80;21.25;;;;;;;21.20;83.94;98531.06;5049536;28;20053;-68
2021/07/19 00:46:05;;;;;;;36.45;22.80;;;;;;;21.23;83.76;98535.16;5033346;28;20211;-67
2021/07/19 00:48:31;;;;;;;36.47;22.77;;;;;;;21.24;83.48;98534.91;5050846;28;20064;-67
2021/07/19 00:50:58;;;;;;;34.38;23.02;;;;;;;21.28;83.61;98535.22;5049580;28;20494;-67
2021/07/19 00:53:23;;;;;;;32.83;22.17;;;;;;;21.27;83.60;98531.69;5050004;28;20037;-67
2021/07/19 00:55:51;;;;;;;32.90;20.58;;;;;;;21.29;83.33;98532.28;5036868;28;20131;-67
2021/07/19 00:58:19;;;;;;;36.75;20.60;;;;;;;21.28;83.18;98529.81;5053496;28;20127;-67
2021/07/19 01:00:53;;;;;;;27.27;19.00;;;;;;;21.29;83.14;98534.16;5053283;28;20130;-67
2021/07/19 01:03:20;;;;;;;32.40;18.85;;;;;;;21.18;83.29;98513.50;5053393;28;20516;-68
2021/07/19 01:05:48;;;;;;;29.77;19.70;;;;;;;21.26;83.20;98532.78;5053251;28;20049;-68
2021/07/19 01:08:18;;;;;;;28.48;17.67;;;;;;;21.28;83.41;98529.81;5035868;28;20311;-68
2021/07/19 01:10:46;;;;;;;28.48;18.73;;;;;;;21.27;83.08;98522.78;5053154;28;20041;-68
2021/07/19 01:13:12;;;;;;;29.67;20.75;;;;;;;21.29;83.10;98520.63;5053381;28;20040;-68
2021/07/19 01:15:42;;;;;;;31.70;19.77;;;;;;;21.30;83.16;98525.78;5052921;28;20044;-68
2021/07/19 01:18:10;;;;;;;33.17;17.90;;;;;;;21.21;82.86;98512.97;5053365;28;20052;-67
2021/07/19 01:20:36;;;;;;;29.15;18.02;;;;;;;21.33;82.86;98532.56;5053051;28;20491;-68
2021/07/19 01:23:33;;;;;;;23.77;15.98;;;;;;;21.37;82.76;98529.09;5054171;28;20466;-67
2021/07/19 01:26:29;;;;;;;22.52;16.17;;;;;;;21.41;82.48;98534.81;5053568;28;20049;-67
2021/07/19 01:28:57;;;;;;;102.05;69.57;;;;;;;21.44;82.27;98532.44;5054020;28;20104;-67
2021/07/19 01:31:26;;;;;;;146.20;96.13;;;;;;;21.47;82.35;98539.19;5053035;28;20041;-68
2021/07/19 01:33:57;;;;;;;55.67;39.22;;;;;;;21.49;81.82;98534.38;5052784;28;20139;-68
2021/07/19 01:36:28;;;;;;;36.28;23.60;;;;;;;21.51;81.85;98529.53;5054130;28;20037;-67
2021/07/19 01:39:14;;;;;;;29.13;18.55;;;;;;;21.53;81.90;98532.78;5053790;28;20045;-68
2021/07/19 01:41:40;;;;;;;27.35;17.85;;;;;;;21.54;81.61;98534.44;5036233;28;20418;-67
2021/07/19 01:44:09;;;;;;;21.88;16.33;;;;;;;21.59;81.88;98539.84;5036702;28;20044;-68
2021/07/19 01:46:36;;;;;;;23.15;16.80;;;;;;;21.61;81.38;98533.16;5036318;28;20045;-67
2021/07/19 01:49:05;;;;;;;26.67;17.08;;;;;;;21.62;81.24;98529.38;5052567;28;20129;-67
2021/07/19 01:51:32;;;;;;;22.83;16.27;;;;;;;21.66;81.03;98537.78;5052479;28;20143;-68
2021/07/19 01:53:59;;;;;;;24.40;16.50;;;;;;;21.72;80.93;98536.75;5052405;28;20080;-67
2021/07/19 01:56:27;;;;;;;25.85;16.65;;;;;;;21.75;81.05;98533.56;5052456;28;20041;-68
2021/07/19 01:58:56;;;;;;;25.65;16.88;;;;;;;21.78;80.80;98532.25;5035832;28;20417;-67
2021/07/19 02:01:25;;;;;;;26.77;16.95;;;;;;;21.70;80.92;98519.97;5052420;28;20084;-67
2021/07/19 02:03:53;;;;;;;25.58;16.50;;;;;;;21.83;80.79;98529.59;5019656;28;20412;-68
2021/07/19 02:06:19;;;;;;;24.98;17.13;;;;;;;21.83;80.32;98530.41;5034990;28;20040;-67
2021/07/19 02:09:01;;;;;;;23.67;16.83;;;;;;;21.75;80.60;98519.25;5037275;28;20052;-67
2021/07/19 02:11:36;;;;;;;27.58;16.60;;;;;;;21.86;80.43;98537.19;5052104;28;20072;-68
2021/07/19 02:14:06;;;;;;;24.13;16.23;;;;;;;21.89;80.33;98542.91;5035495;28;20041;-67
2021/07/19 02:16:35;;;;;;;26.83;16.88;;;;;;;21.92;79.94;98552.38;5052228;28;20128;-68
2021/07/19 02:19:02;;;;;;;25.90;17.23;;;;;;;21.92;80.07;98547.78;5035404;28;20049;-67
2021/07/19 02:21:31;;;;;;;26.73;17.10;;;;;;;21.97;80.20;98552.44;5052038;28;20052;-67
2021/07/19 02:24:26;;;;;;;28.03;16.93;;;;;;;22.01;79.93;98546.25;5038772;28;20098;-67
2021/07/19 02:27:14;;;;;;;30.20;17.73;;;;;;;22.04;79.72;98543.03;5053284;28;20499;-68
2021/07/19 02:29:41;;;;;;;27.10;17.85;;;;;;;22.08;79.77;98541.44;5051995;28;20037;-68
2021/07/19 02:32:08;;;;;;;32.13;18.25;;;;;;;22.07;79.84;98545.22;5051881;28;20056;-68
2021/07/19 02:34:33;;;;;;;30.98;17.02;;;;;;;22.09;79.84;98551.19;5035237;28;20045;-68
2021/07/19 02:37:00;;;;;;;45.45;19.00;;;;;;;22.07;79.45;98537.09;5051720;28;20416;-68
2021/07/19 02:39:28;;;;;;;30.80;19.58;;;;;;;22.06;79.62;98540.06;5051570;28;20056;-67
2021/07/19 02:41:54;;;;;;;175.00;26.25;;;;;;;21.95;80.01;98532.94;5051625;28;20425;-67
2021/07/19 02:44:23;;;;;;;30.00;19.88;;;;;;;21.99;80.72;98551.09;5018747;28;20064;-68
2021/07/19 02:47:12;;;;;;;28.08;18.63;;;;;;;22.05;80.42;98555.47;5038430;28;20091;-68
2021/07/19 02:49:38;;;;;;;25.15;17.02;;;;;;;22.10;80.00;98557.41;5051461;28;20493;-68
2021/07/19 02:52:04;;;;;;;39.72;19.38;;;;;;;22.06;79.99;98550.88;5051566;28;20415;-67
2021/07/19 02:54:32;;;;;;;36.63;19.65;;;;;;;22.11;80.32;98553.63;5051524;28;20044;-66
2021/07/19 02:56:59;;;;;;;34.78;18.48;;;;;;;22.14;80.14;98556.63;5034861;28;20094;-68
2021/07/19 02:59:26;;;;;;;39.00;19.58;;;;;;;22.13;79.89;98557.69;5034900;28;20048;-68
2021/07/19 03:01:56;;;;;;;90.88;22.17;;;;;;;21.88;80.56;98553.97;5052392;28;20049;-68
2021/07/19 03:04:23;;;;;;;27.58;17.77;;;;;;;21.62;81.44;98550.16;5051317;28;20409;-68
2021/07/19 03:06:50;;;;;;;36.65;21.88;;;;;;;21.60;82.33;98563.94;5034637;28;20404;-68
2021/07/19 03:09:18;;;;;;;32.30;19.52;;;;;;;21.51;82.56;98548.44;5052439;28;20071;-68
2021/07/19 03:11:50;;;;;;;35.83;18.45;;;;;;;21.61;82.04;98541.25;5052456;28;20131;-68
2021/07/19 03:14:24;;;;;;;25.70;17.80;;;;;;;21.76;81.88;98545.22;5035789;28;20571;-68
2021/07/19 03:16:53;;;;;;;27.70;17.92;;;;;;;21.96;81.31;98553.50;5050249;28;20513;-68
2021/07/19 03:19:20;;;;;;;41.83;20.17;;;;;;;22.03;81.13;98559.50;5034001;28;20036;-68
2021/07/19 03:21:48;;;;;;;59.60;19.90;;;;;;;22.04;81.03;98556.53;5050876;28;20052;-68
2021/07/19 03:24:28;;;;;;;34.55;19.13;;;;;;;22.03;81.36;98564.91;5034168;28;20049;-67
2021/07/19 03:26:54;;;;;;;24.85;16.30;;;;;;;22.17;80.44;98560.72;5050578;28;20498;-67
2021/07/19 03:29:23;;;;;;;44.13;19.20;;;;;;;22.14;80.00;98543.09;5050723;28;20519;-67
2021/07/19 03:32:09;;;;;;;29.77;17.00;;;;;;;22.28;79.83;98540.78;5036846;28;20052;-69
2021/07/19 03:34:39;;;;;;;24.98;16.58;;;;;;;22.57;79.38;98550.22;5034290;28;20091;-68
2021/07/19 03:37:07;;;;;;;24.10;15.57;;;;;;;22.75;78.23;98550.59;5050554;28;20049;-68
2021/07/19 03:39:40;;;;;;;22.00;15.77;;;;;;;22.93;77.69;98554.75;5050568;28;20044;-67
2021/07/19 03:42:10;;;;;;;22.75;16.08;;;;;;;22.99;76.98;98557.22;5051686;28;20123;-68
2021/07/19 03:44:40;;;;;;;21.33;15.10;;;;;;;22.99;77.48;98556.41;5017974;28;20106;-68
2021/07/19 03:47:09;;;;;;;22.13;15.25;;;;;;;22.85;77.25;98545.22;5050178;28;20106;-68
2021/07/19 03:49:36;;;;;;;19.58;14.23;;;;;;;22.94;77.25;98561.81;5050200;28;20051;-67
2021/07/19 03:52:03;;;;;;;19.23;14.43;;;;;;;22.91;77.40;98560.41;5033492;28;20524;-67
2021/07/19 03:54:29;;;;;;;20.02;13.55;;;;;;;22.87;77.72;98562.03;5033689;28;20041;-67
2021/07/19 03:56:56;;;;;;;18.25;13.32;;;;;;;22.86;77.67;98563.09;5051235;28;20084;-67
2021/07/19 03:59:23;;;;;;;19.92;14.20;;;;;;;22.76;78.03;98554.09;5051630;28;20071;-68
2021/07/19 04:01:51;;;;;;;19.45;14.63;;;;;;;22.76;77.93;98578.47;5051234;28;20123;-68
2021/07/19 04:04:29;;;;;;;21.17;14.88;;;;;;;22.74;78.39;98577.94;5051606;28;20040;-67
2021/07/19 04:06:56;;;;;;;16.55;13.18;;;;;;;22.77;78.37;98588.25;5050134;28;20103;-67
2021/07/19 04:09:21;;;;;;;21.83;13.95;;;;;;;22.88;77.99;98589.94;5050093;28;20136;-68
2021/07/19 04:11:50;;;;;;;19.45;14.23;;;;;;;23.02;77.14;98575.66;5050001;28;20048;-68
2021/07/19 04:14:17;;;;;;;21.60;13.02;;;;;;;23.13;76.54;98552.13;5033699;28;20069;-67
2021/07/19 04:16:46;;;;;;;22.98;13.68;;;;;;;23.42;76.28;98585.06;5017404;28;20049;-67
2021/07/19 04:19:13;;;;;;;20.27;12.30;;;;;;;23.54;76.07;98581.03;5051052;28;20406;-67
2021/07/19 04:21:40;;;;;;;17.83;13.93;;;;;;;23.59;75.14;98575.63;5049720;28;20048;-68
2021/07/19 04:24:11;;;;;;;16.48;12.43;;;;;;;23.72;74.58;98567.00;5017505;28;20160;-67
2021/07/19 04:26:41;;;;;;;20.23;12.13;;;;;;;23.86;73.74;98549.13;5049606;28;20420;-68
2021/07/19 04:29:09;;;;;;;15.70;11.63;;;;;;;24.23;72.44;98563.25;5033249;28;20052;-67
2021/07/19 04:31:44;;;;;;;19.65;12.15;;;;;;;24.48;71.46;98555.09;5017912;28;20051;-68
2021/07/19 04:34:30;;;;;;;15.65;11.88;;;;;;;24.81;69.92;98554.53;5050182;28;20135;-67
2021/07/19 04:37:04;;;;;;;16.65;11.10;;;;;;;25.17;68.85;98570.72;5049594;28;20479;-68
2021/07/19 04:39:33;;;;;;;14.52;11.10;;;;;;;25.08;68.67;98566.97;5049819;28;20182;-68
2021/07/19 04:42:02;;;;;;;16.30;11.30;;;;;;;25.12;68.29;98562.59;5049314;28;20045;-68
2021/07/19 04:44:28;;;;;;;14.93;11.52;;;;;;;25.23;68.25;98565.00;5050963;28;20052;-67
2021/07/19 04:46:54;;;;;;;16.17;11.00;;;;;;;25.35;67.70;98578.28;5050745;28;20041;-69
2021/07/19 04:49:20;;;;;;;15.60;10.85;;;;;;;25.27;67.93;98555.19;5049870;28;20048;-68
2021/07/19 04:51:47;;;;;;;13.25;10.52;;;;;;;25.27;68.06;98566.06;5050823;28;20048;-68
2021/07/19 04:54:17;;;;;;;16.25;10.75;;;;;;;25.20;68.34;98565.53;5050624;28;20045;-67
2021/07/19 04:56:44;;;;;;;18.92;10.88;;;;;;;25.06;68.52;98569.13;5050760;28;20051;-68
2021/07/19 04:59:10;;;;;;;14.98;10.93;;;;;;;24.98;69.32;98561.53;5032864;28;20056;-68
2021/07/19 05:01:36;;;;;;;15.85;10.70;;;;;;;25.02;69.25;98557.19;5032842;28;20037;-68
2021/07/19 05:04:02;;;;;;;12.13;10.00;;;;;;;25.16;68.95;98564.47;5049522;28;20095;-68
2021/07/19 05:06:28;;;;;;;17.90;10.13;;;;;;;25.29;68.12;98550.28;5033005;28;20048;-69
2021/07/19 05:08:55;;;;;;;15.82;10.82;;;;;;;25.58;68.03;98564.84;5050601;28;20091;-68
2021/07/19 05:11:23;;;;;;;15.98;10.27;;;;;;;25.69;67.62;98563.72;5049668;28;20037;-68
2021/07/19 05:13:49;;;;;;;17.05;10.65;;;;;;;25.77;66.95;98573.97;5049570;28;20036;-68
2021/07/19 05:16:15;;;;;;;15.73;9.70;;;;;;;25.90;66.19;98570.63;5049279;28;20076;-68
2021/07/19 05:18:41;;;;;;;14.85;9.35;;;;;;;26.09;66.22;98563.44;5049391;28;20091;-69
2021/07/19 05:21:08;;;;;;;15.50;10.07;;;;;;;26.13;66.02;98571.84;5050221;28;20415;-68
2021/07/19 05:23:34;;;;;;;12.70;9.60;;;;;;;26.07;65.77;98553.94;5050379;28;20064;-68
2021/07/19 05:25:59;;;;;;;12.20;9.10;;;;;;;26.17;65.86;98572.94;5050342;28;20133;-68
2021/07/19 05:28:25;;;;;;;15.30;9.77;;;;;;;26.09;65.41;98562.63;5050233;28;20089;-68
2021/07/19 05:30:53;;;;;;;11.95;8.70;;;;;;;26.25;65.16;98584.00;5050637;28;20044;-68
2021/07/19 05:33:21;;;;;;;16.13;9.05;;;;;;;26.31;65.50;98571.97;5049223;28;20479;-68
2021/07/19 05:35:47;;;;;;;17.17;8.60;;;;;;;26.35;64.59;98570.28;5050423;28;20148;-68
2021/07/19 05:38:14;;;;;;;14.43;8.30;;;;;;;26.32;64.43;98570.88;5050348;28;20053;-69
2021/07/19 05:40:40;;;;;;;13.15;8.43;;;;;;;26.48;64.13;98577.81;5050094;28;20397;-69
2021/07/19 05:43:06;;;;;;;12.00;8.63;;;;;;;26.80;63.55;98576.47;5053864;28;20055;-69
2021/07/19 05:45:32;;;;;;;14.10;8.57;;;;;;;26.97;63.42;98574.91;5036120;28;20037;-69
2021/07/19 05:47:58;;;;;;;16.48;9.43;;;;;;;27.02;62.51;98568.56;5052757;28;20086;-68
2021/07/19 05:50:25;;;;;;;10.48;8.98;;;;;;;26.95;62.60;98555.31;5052874;28;20044;-68
2021/07/19 05:52:51;;;;;;;13.13;8.10;;;;;;;27.11;62.70;98575.03;5036149;28;20115;-68
2021/07/19 05:55:18;;;;;;;10.43;8.50;;;;;;;27.20;62.00;98562.38;5052505;28;20049;-68
2021/07/19 05:57:45;;;;;;;12.00;8.80;;;;;;;27.46;61.15;98569.97;5035900;28;20527;-68
2021/07/19 06:00:15;;;;;;;13.50;8.30;;;;;;;27.58;61.19;98581.28;5052404;28;20045;-68
2021/07/19 06:02:43;;;;;;;12.15;8.77;;;;;;;27.64;60.64;98579.28;5035724;28;20443;-68
2021/07/19 06:05:11;;;;;;;10.93;7.70;;;;;;;27.64;60.54;98580.09;5053335;28;20045;-68
2021/07/19 06:07:38;;;;;;;10.00;7.55;;;;;;;27.76;60.01;98568.75;5053582;28;20053;-68
2021/07/19 06:10:05;;;;;;;10.93;7.57;;;;;;;27.84;59.58;98581.72;5052142;28;20045;-68
2021/07/19 06:12:31;;;;;;;8.48;6.65;;;;;;;27.91;59.36;98588.47;5053379;28;20044;-68
2021/07/19 06:14:56;;;;;;;10.20;6.57;;;;;;;28.02;58.93;98589.94;5053262;28;20053;-69
2021/07/19 06:17:22;;;;;;;11.77;6.97;;;;;;;28.06;58.71;98587.44;5053718;28;20045;-68
2021/07/19 06:19:48;;;;;;;9.43;7.47;;;;;;;28.02;58.16;98570.00;5053252;28;20077;-69
2021/07/19 06:22:16;;;;;;;9.30;6.88;;;;;;;28.18;57.42;98578.78;5051848;28;20443;-68
2021/07/19 06:24:42;;;;;;;12.25;7.13;;;;;;;28.24;57.88;98589.34;5052069;28;20051;-68
2021/07/19 06:27:08;;;;;;;9.90;6.80;;;;;;;28.19;57.98;98592.13;5052917;28;20048;-68
2021/07/19 06:29:34;;;;;;;11.15;6.50;;;;;;;28.22;56.71;98564.22;5053232;28;20515;-68
2021/07/19 06:32:01;;;;;;;14.60;7.50;;;;;;;28.44;56.32;98586.28;5052954;28;20079;-69
2021/07/19 06:34:28;;;;;;;11.43;6.70;;;;;;;28.68;56.17;98589.69;5053400;28;20049;-68
2021/07/19 06:36:54;;;;;;;13.70;7.45;;;;;;;28.81;55.28;98582.66;5052056;28;20067;-68
2021/07/19 06:39:20;;;;;;;11.32;7.20;;;;;;;28.82;54.71;98593.28;5051617;28;20048;-68
2021/07/19 06:41:46;;;;;;;11.02;7.07;;;;;;;29.09;54.44;98593.31;5051678;28;20099;-68
2021/07/19 06:44:12;;;;;;;8.98;6.22;;;;;;;29.10;53.70;98572.28;5051551;28;20067;-68
2021/07/19 06:46:38;;;;;;;9.07;6.45;;;;;;;29.30;53.32;98600.03;5051733;28;20041;-68
2021/07/19 06:49:05;;;;;;;16.65;7.32;;;;;;;29.27;53.72;98602.56;5052785;28;20037;-68
2021/07/19 06:51:30;;;;;;;10.93;7.05;;;;;;;29.24;53.90;98594.97;5034692;28;20111;-69
2021/07/19 06:53:56;;;;;;;12.82;6.40;;;;;;;29.24;53.62;98584.84;5051591;28;20455;-68
2021/07/19 06:56:22;;;;;;;11.73;6.57;;;;;;;29.36;53.94;98604.28;5034838;28;20048;-68
2021/07/19 06:58:48;;;;;;;12.68;7.43;;;;;;;29.37;52.83;98591.41;5051468;28;20041;-68
2021/07/19 07:01:14;;;;;;;9.48;6.68;;;;;;;29.43;51.90;98598.41;5034606;28;20068;-68
2021/07/19 07:03:41;;;;;;;12.30;5.85;;;;;;;29.33;52.53;98596.69;5034795;28;20131;-68
2021/07/19 07:06:07;;;;;;;11.95;7.20;;;;;;;28.98;52.65;98591.06;5051104;28;20135;-69
2021/07/19 07:08:32;;;;;;;12.88;7.18;;;;;;;28.93;53.24;98578.31;5051261;28;20481;-68
2021/07/19 07:10:58;;;;;;;11.27;6.40;;;;;;;29.17;52.78;98580.88;5051308;28;20076;-68
2021/07/19 07:13:24;;;;;;;10.15;6.35;;;;;;;29.43;52.45;98585.53;5052366;28;20051;-68
2021/07/19 07:15:50;;;;;;;15.05;12.13;;;;;;;29.76;50.97;98599.09;5052301;28;20045;-68
2021/07/19 07:18:16;;;;;;;13.65;6.95;;;;;;;29.61;51.05;98603.72;5017787;28;20455;-68
2021/07/19 07:20:42;;;;;;;10.68;6.63;;;;;;;29.99;50.74;98600.75;5052244;28;20089;-68
2021/07/19 07:23:07;;;;;;;11.75;6.45;;;;;;;30.38;49.91;98596.28;5034122;28;20063;-68
2021/07/19 07:25:33;;;;;;;11.93;6.35;;;;;;;30.60;48.83;98588.03;5052334;28;20424;-68
2021/07/19 07:27:59;;;;;;;11.00;5.90;;;;;;;30.57;49.33;98598.81;5051058;28;20049;-68
2021/07/19 07:30:25;;;;;;;10.57;6.07;;;;;;;30.57;48.42;98576.88;5052337;28;20051;-67
2021/07/19 07:32:52;;;;;;;8.80;5.43;;;;;;;31.40;46.28;98600.75;5050651;28;20041;-68
2021/07/19 07:35:18;;;;;;;8.45;5.60;;;;;;;31.96;44.61;98601.53;5051775;28;20158;-67
2021/07/19 07:37:44;;;;;;;10.48;5.50;;;;;;;32.46;43.65;98599.16;5050663;28;20405;-67
2021/07/19 07:40:12;;;;;;;9.95;5.75;;;;;;;32.99;42.20;98605.03;5017462;28;20532;-68
2021/07/19 07:42:38;;;;;;;6.82;5.38;;;;;;;32.77;41.96;98607.19;5050442;28;20068;-67
2021/07/19 07:45:04;;;;;;;10.88;6.00;;;;;;;32.98;41.53;98599.84;5034022;28;20501;-68
2021/07/19 07:47:30;;;;;;;11.48;4.93;;;;;;;32.92;41.66;98601.16;5050854;28;20044;-69
2021/07/19 07:49:56;;;;;;;7.35;5.07;;;;;;;33.55;40.61;98612.88;5050352;28;20044;-68
2021/07/19 07:52:22;;;;;;;10.60;5.55;;;;;;;33.93;39.18;98605.41;5033632;28;20415;-68
2021/07/19 07:54:48;;;;;;;10.30;5.35;;;;;;;34.51;37.64;98604.44;5051537;28;20044;-69
2021/07/19 07:57:14;;;;;;;8.85;5.00;;;;;;;35.16;35.76;98593.38;5050209;28;20057;-69
2021/07/19 07:59:40;;;;;;;7.35;4.68;;;;;;;36.58;32.92;98589.13;5050292;28;20044;-68
2021/07/19 08:02:06;;;;;;;8.05;4.85;;;;;;;38.03;29.68;98588.88;5051197;28;20086;-68
2021/07/19 08:04:32;;;;;;;11.05;4.50;;;;;;;39.44;26.78;98588.91;5049831;28;20040;-68
2021/07/19 08:07:00;;;;;;;6.05;4.20;;;;;;;40.42;25.55;98587.56;5050336;28;20520;-68
2021/07/19 08:09:26;;;;;;;13.13;4.50;;;;;;;41.36;24.21;98575.81;5050044;28;20080;-69
2021/07/19 08:11:52;;;;;;;8.95;4.15;;;;;;;42.32;23.03;98567.69;5050058;28;20037;-69
2021/07/19 08:14:18;;;;;;;12.38;4.10;;;;;;;42.81;21.79;98564.28;5051095;28;20114;-69
2021/07/19 08:16:44;;;;;;;9.73;3.92;;;;;;;43.36;21.11;98561.91;5051169;28;20484;-69
2021/07/19 08:19:10;;;;;;;8.40;3.88;;;;;;;44.02;20.52;98570.25;5049664;28;20041;-69
2021/07/19 08:21:38;;;;;;;6.35;4.47;;;;;;;43.64;20.82;98576.69;5049863;28;20549;-69
2021/07/19 08:24:04;;;;;;;8.63;4.20;;;;;;;43.79;20.88;98571.88;5049681;28;20045;-70
2021/07/19 08:26:30;;;;;;;5.38;4.32;;;;;;;42.97;21.46;98573.06;5051454;28;20053;-69
2021/07/19 08:28:56;;;;;;;6.28;4.30;;;;;;;43.48;21.12;98555.91;5050959;28;20102;-68
2021/07/19 08:31:23;;;;;;;5.75;3.75;;;;;;;44.29;20.06;98565.75;5049745;28;20045;-68
2021/07/19 08:33:49;;;;;;;8.07;4.03;;;;;;;45.63;18.79;98553.63;5050987;28;20056;-69
2021/07/19 08:36:15;;;;;;;14.77;4.75;;;;;;;45.89;17.92;98552.97;5033112;28;20037;-69
2021/07/19 08:38:41;;;;;;;7.60;4.07;;;;;;;46.30;17.28;98555.72;5049687;28;20045;-69
2021/07/19 08:41:07;;;;;;;7.85;4.10;;;;;;;45.25;18.30;98552.78;5049507;28;20490;-69
2021/07/19 08:43:35;;;;;;;10.88;4.13;;;;;;;43.29;19.95;98545.16;5051150;28;20111;-68
2021/07/19 08:46:01;;;;;;;7.63;4.13;;;;;;;41.49;22.63;98547.22;5033543;28;20048;-70
2021/07/19 08:48:27;;;;;;;9.20;4.82;;;;;;;41.70;22.35;98533.44;5050893;28;20136;-68
2021/07/19 08:50:54;;;;;;;7.40;4.25;;;;;;;41.95;22.01;98532.81;5050837;28;20033;-69
2021/07/19 08:53:19;;;;;;;11.00;4.30;;;;;;;43.25;19.88;98533.97;5050648;28;20124;-69
2021/07/19 08:55:49;;;;;;;7.38;4.32;;;;;;;42.10;20.71;98523.31;5050771;28;20457;-68
2021/07/19 08:58:15;;;;;;;10.40;4.53;;;;;;;40.80;22.58;98525.13;5016718;28;20120;-68
2021/07/19 09:00:41;;;;;;;8.20;4.45;;;;;;;40.96;22.57;98534.84;5049510;28;20090;-69
2021/07/19 09:03:07;;;;;;;7.97;4.15;;;;;;;41.55;21.80;98523.41;5032679;28;20493;-69
2021/07/19 09:05:33;;;;;;;7.03;3.95;;;;;;;42.42;20.29;98536.22;5049507;28;20124;-68
2021/07/19 09:07:59;;;;;;;7.55;4.15;;;;;;;41.63;20.56;98533.41;5032800;28;20041;-70
2021/07/19 09:10:26;;;;;;;5.07;3.92;;;;;;;42.60;18.78;98527.88;5050492;28;20052;-69
2021/07/19 09:12:53;;;;;;;5.90;3.75;;;;;;;44.16;17.43;98533.81;5049406;28;20072;-69
2021/07/19 09:15:36;;;;;;;6.57;3.55;;;;;;;46.10;14.97;98536.69;5049697;28;20467;-69
2021/07/19 09:18:04;;;;;;;5.38;3.63;;;;;;;47.25;14.08;98530.66;5053563;28;20122;-69
2021/07/19 09:20:39;;;;;;;5.53;3.63;;;;;;;48.19;12.62;98521.63;5053370;28;20049;-69
2021/07/19 09:23:10;;;;;;;12.18;3.75;;;;;;;48.57;12.61;98513.56;5036685;28;20045;-69
2021/07/19 09:25:35;;;;;;;8.68;4.47;;;;;;;48.76;12.79;98509.91;5036585;28;20408;-69
2021/07/19 09:28:05;;;;;;;10.63;4.00;;;;;;;48.35;12.55;98501.19;5052869;28;20057;-69
2021/07/19 09:30:33;;;;;;;8.20;3.80;;;;;;;47.36;14.17;98516.41;5054228;28;20059;-69
2021/07/19 09:33:02;;;;;;;8.35;3.45;;;;;;;47.59;13.95;98514.34;5054119;28;20052;-68
2021/07/19 09:35:29;;;;;;;7.10;3.85;;;;;;;46.28;14.83;98514.03;5054018;28;20053;-68
2021/07/19 09:37:55;;;;;;;5.10;3.45;;;;;;;44.62;16.61;98506.38;5054112;28;20505;-68
2021/07/19 09:40:26;;;;;;;7.20;4.28;;;;;;;43.60;17.64;98511.56;5053877;28;20051;-69
2021/07/19 09:42:51;;;;;;;8.02;4.20;;;;;;;42.93;18.65;98521.97;5053978;28;20083;-68
2021/07/19 09:45:32;;;;;;;8.05;3.83;;;;;;;43.40;17.28;98515.16;5054002;28;20136;-68
2021/07/19 09:48:02;;;;;;;8.85;4.30;;;;;;;43.71;16.35;98515.16;5053848;28;20052;-68
2021/07/19 09:50:41;;;;;;;5.88;3.70;;;;;;;42.50;16.68;98509.13;5036039;28;20049;-68
2021/07/19 09:53:07;;;;;;;9.98;3.90;;;;;;;40.73;18.34;98506.38;5052655;28;20044;-69
2021/07/19 09:55:33;;;;;;;5.97;4.13;;;;;;;40.46;18.31;98506.88;5053926;28;20041;-68
2021/07/19 09:58:00;;;;;;;7.10;3.95;;;;;;;41.60;18.14;98505.50;5053713;28;20041;-69
2021/07/19 10:00:27;;;;;;;12.35;3.97;;;;;;;42.02;17.84;98504.94;5052313;28;20083;-68
2021/07/19 10:02:53;;;;;;;7.13;4.30;;;;;;;39.80;20.21;98507.59;5052358;28;20045;-69
2021/07/19 10:05:30;;;;;;;10.85;4.82;;;;;;;38.16;22.04;98506.38;5052260;28;20556;-68
2021/07/19 10:07:59;;;;;;;10.23;4.40;;;;;;;38.62;22.05;98502.53;5052375;28;20049;-68
2021/07/19 10:10:51;;;;;;;6.97;4.90;;;;;;;40.35;20.14;98501.19;5035878;28;20048;-68
2021/07/19 10:13:17;;;;;;;5.85;4.30;;;;;;;41.74;18.51;98494.44;5053009;28;20056;-69
2021/07/19 10:15:43;;;;;;;6.30;4.13;;;;;;;42.19;17.84;98496.66;5052255;28;20049;-68
2021/07/19 10:18:11;;;;;;;6.45;3.92;;;;;;;43.30;16.96;98493.63;5052285;28;20037;-68
2021/07/19 10:20:40;;;;;;;10.25;3.90;;;;;;;44.46;15.16;98500.47;5035880;28;20511;-70
2021/07/19 10:23:08;;;;;;;5.47;3.72;;;;;;;44.32;15.09;98503.34;5052253;28;20052;-69
2021/07/19 10:25:37;;;;;;;7.60;3.55;;;;;;;43.88;15.53;98493.94;5053120;28;20045;-69
2021/07/19 10:28:03;;;;;;;;;;;;;;;44.14;15.50;98497.00;5052827;28;20064;-70
2021/07/19 10:30:29;;;;;;;11.75;5.30;;;;;;;44.60;15.41;98489.16;5053004;28;20377;-69
2021/07/19 10:32:55;;;;;;;12.30;4.53;;;;;;;45.18;14.61;98488.34;5051829;28;20040;-68
2021/07/19 10:35:21;;;;;;;5.60;4.20;;;;;;;45.96;14.13;98491.16;5052544;28;20075;-69
2021/07/19 10:37:55;;;;;;;9.75;4.00;;;;;;;45.54;14.32;98483.19;5034944;28;20139;-69
2021/07/19 10:40:27;;;;;;;9.15;4.20;;;;;;;45.07;14.71;98489.66;5031918;28;20606;-69
2021/07/19 10:43:07;;;;;;;4.45;3.30;;;;;;;44.46;14.48;98480.03;5032012;28;20053;-69
2021/07/19 10:45:51;;;;;;;7.40;3.42;;;;;;;43.81;15.07;98471.56;5050128;28;20397;-71
2021/07/19 10:48:22;;;;;;;8.80;3.72;;;;;;;43.20;15.94;98473.69;5017419;28;20060;-69
2021/07/19 10:50:48;;;;;;;6.82;3.92;;;;;;;43.58;15.69;98474.03;5047945;28;20037;-69
2021/07/19 10:53:27;;;;;;;4.88;3.70;;;;;;;42.74;16.49;98470.06;5047648;28;20041;-69
2021/07/19 10:56:06;;;;;;;5.32;3.88;;;;;;;41.48;18.17;98459.22;5047992;28;20040;-69
2021/07/19 10:58:39;;;;;;;7.38;4.95;;;;;;;41.08;18.51;98461.31;5031330;28;20416;-69
2021/07/19 11:01:17;;;;;;;6.68;4.03;;;;;;;41.87;17.81;98447.47;5049404;28;20079;-68
2021/07/19 11:03:42;;;;;;;8.75;3.85;;;;;;;42.85;17.17;98447.72;5031854;28;20126;-69
2021/07/19 11:06:10;;;;;;;9.57;4.10;;;;;;;43.06;16.83;98442.91;5033396;28;20499;-68
2021/07/19 11:08:46;;;;;;;8.70;3.70;;;;;;;42.51;17.35;98446.47;5051671;28;20037;-69
2021/07/19 11:11:12;;;;;;;7.00;3.70;;;;;;;42.82;16.69;98451.31;5033812;28;20181;-71
2021/07/19 11:13:38;;;;;;;7.00;3.88;;;;;;;43.25;16.20;98455.69;5050741;28;20504;-68
2021/07/19 11:16:14;;;;;;;4.53;3.70;;;;;;;42.18;16.85;98449.59;5033774;28;20375;-68
2021/07/19 11:18:40;;;;;;;7.70;3.38;;;;;;;40.49;18.93;98442.09;5017558;28;20064;-69
2021/07/19 11:21:06;;;;;;;5.78;3.70;;;;;;;39.29;19.74;98443.34;5017441;28;20068;-68
2021/07/19 11:23:36;;;;;;;4.78;3.83;;;;;;;38.50;20.25;98442.41;5033939;28;20208;-68
2021/07/19 11:26:05;;;;;;;6.22;3.53;;;;;;;36.85;22.39;98427.81;5033209;28;20106;-68
2021/07/19 11:28:40;;;;;;;5.33;3.77;;;;;;;35.92;24.55;98429.63;5016604;28;20061;-68
2021/07/19 11:31:10;;;;;;;8.15;4.22;;;;;;;35.72;24.47;98425.91;5033330;28;20041;-67